Tropical Cyclones
[Index]
Main Index Home Page Stock Weather Photos Extreme Storms Discussion Storm News and Storm Chasing Reports Tropical Cyclones / Hurricanes / Typhoons Weather Data and Links Wild Fires / Bushfires Weather Observation Techniques Weather Picture Catalogue Tornado Pictures and Reports Stock Video Footage and DVDs for sale
Season 1975-1976 Tropical Cyclone GLADYS Track Map
Season 1975-1976 Summaries: [BoM-AU] [JTWC-AU] [JTWC-SIO] [JTWC-SPAC] [JTWC-SH]
<<- Previous TC | JTWC 1975-1976 Season | Next TC ->>

click for intensity scale information  Lat/long Grid: Show Hide

 Date Labels: Show Hide

Joint Typhoon Warning Centre Cyclone Data

Name: GLADYS
Number: 927 / 7623

27 Mar 1976 06:00 UTC to 10 Apr 1976 18:00 UTC

    date/time    lat    long     hPa   cat  kts
1976-03-27 06   12.9    56.8                              
1976-03-27 12   12.8    56.2                              
1976-03-27 18   12.8    55.5                              
1976-03-28 00   12.8    54.7                              
1976-03-28 06   12.9    53.9                              
1976-03-28 12   13.3    53.4                              
1976-03-28 18   13.7    52.9                              
1976-03-29 00   14.2    52.4                              
1976-03-29 06   14.6    51.9                              
1976-03-29 12   14.6    50.9                              
1976-03-29 18   14.5    49.4                              
1976-03-30 00   14.5    47.8                              
1976-03-30 06   14.5    46.4                              
1976-03-30 12   14.6    45.5                              
1976-03-30 18   14.8    44.7                              
1976-03-31 00   14.9    43.8                              
1976-03-31 06   14.9    42.9                              
1976-03-31 12   14.9    42.2                              
1976-03-31 18   14.9    41.5                              
1976-04-01 00   15.0    40.8                              
1976-04-01 06   15.1    40.3                              
1976-04-01 12   15.3    39.9                              
1976-04-01 18   15.5    39.6                              
1976-04-02 00   15.7    39.3                              
1976-04-02 06   16.0    39.0                              
1976-04-02 12   16.6    38.9                              
1976-04-02 18   17.3    38.9                              
1976-04-03 00   17.8    39.0                              
1976-04-03 06   18.2    39.2                              
1976-04-03 12   18.4    39.5                              
1976-04-03 18   18.6    40.0                              
1976-04-04 00   18.7    40.6                              
1976-04-04 06   18.8    41.2                              
1976-04-04 12   18.9    41.7                              
1976-04-04 18   19.0    42.0                              
1976-04-05 00   19.3    42.1                              
1976-04-05 06   19.7    42.2                              
1976-04-05 12   19.9    42.3                              
1976-04-05 18   20.0    42.3                              
1976-04-06 00   20.1    42.3                              
1976-04-06 06   20.2    42.2                              
1976-04-06 12   20.2    41.9                              
1976-04-06 18   20.1    41.6                              
1976-04-07 00   20.1    41.4                              
1976-04-07 06   20.0    41.2                              
1976-04-07 12   19.9    40.9                              
1976-04-07 18   19.7    40.6                              
1976-04-08 00   19.6    40.5                              
1976-04-08 06   19.5    40.3                              
1976-04-08 12   19.7    39.8                              
1976-04-08 18   20.0    39.3                              
1976-04-09 00   20.3    38.9                              
1976-04-09 06   20.7    38.7                              
1976-04-09 12   21.1    38.7                              
1976-04-09 18   21.6    38.6                              
1976-04-10 00   22.0    38.6                              
1976-04-10 06   22.4    38.5                              
1976-04-10 12   23.1    38.5                              
1976-04-10 18   24.1    38.4                              
Winds are 1-min average.

Tropical cyclone tracks developed by Michael Bath using data from the Joint Typhoon Warning Centre Best Tracks and Google Maps.


[Australian Severe Weather index] [Copyright Notice] [Email Contacts] [Search This Site] [Privacy Policy]
Document: tropical_cyclone_gladys.htm Updated: 18 September 2016